Time;durP1;ratioP1;P1;durP2;ratioP2;P2;SDS_P1;SDS_P2;PMS_P1;PMS_P2;Temp;Humidity;BMP_temperature;BMP_pressure;BME280_temperature;BME280_humidity;BME280_pressure;Samples;Min_cycle;Max_cycle;Signal;HPM_P1;HPM_P2
2022/11/19 00:01:59;;;;;;;;;;;-1.30;99.90;;;;;;2603242;54;20744;31
2022/11/19 00:04:32;;;;;;;;;;;-1.30;99.90;;;;;;2621817;47;19942;31
2022/11/19 00:07:06;;;;;;;;;;;-1.30;99.90;;;;;;2621581;47;19935;31
2022/11/19 00:09:40;;;;;;;;;;;-1.30;99.90;;;;;;2621714;47;19934;31
2022/11/19 00:15:07;;;;;;;;;;;-1.30;99.90;;;;;;2621616;47;20783;31
2022/11/19 00:17:43;;;;;;;;;;;-1.20;99.90;;;;;;2603325;54;20750;31
2022/11/19 00:20:16;;;;;;;;;;;-1.20;99.90;;;;;;2622344;47;19934;31
2022/11/19 00:22:52;;;;;;;;;;;-1.20;99.90;;;;;;2623057;46;20718;31
2022/11/19 00:25:25;;;;;;;;;;;-1.20;99.90;;;;;;2622726;46;19934;31
2022/11/19 00:27:59;;;;;;;;;;;-1.20;99.90;;;;;;2603934;54;19962;31
2022/11/19 00:30:33;;;;;;;;;;;-1.20;99.90;;;;;;2604143;54;19989;31
2022/11/19 00:33:23;;;;;;;;;;;-1.20;99.90;;;;;;2603804;54;21529;31
2022/11/19 00:35:56;;;;;;;;;;;-1.20;99.90;;;;;;2603995;54;19935;31
2022/11/19 00:38:30;;;;;;;;;;;-1.10;99.90;;;;;;2604195;54;19962;31
2022/11/19 00:41:04;;;;;;;;;;;-1.10;99.90;;;;;;2622501;46;19985;31
2022/11/19 00:43:51;;;;;;;;;;;-1.10;99.90;;;;;;2604169;54;19934;31
2022/11/19 00:46:27;;;;;;;;;;;-1.00;99.90;;;;;;2604272;54;20734;31
2022/11/19 00:49:03;;;;;;;;;;;-1.00;99.90;;;;;;2604092;54;20024;31
2022/11/19 00:51:36;;;;;;;;;;;-1.00;99.90;;;;;;2622608;46;19935;31
2022/11/19 00:54:10;;;;;;;;;;;-0.90;99.90;;;;;;2603993;54;19942;31
2022/11/19 00:56:44;;;;;;;;;;;-0.90;99.90;;;;;;2603823;54;20787;31
2022/11/19 00:59:18;;;;;;;;;;;-0.90;99.90;;;;;;2604120;54;19990;31
2022/11/19 01:01:52;;;;;;;;;;;-1.00;99.90;;;;;;2603801;54;19990;31
2022/11/19 01:04:29;;;;;;;;;;;-0.90;99.90;;;;;;2622329;46;19946;31
2022/11/19 01:07:02;;;;;;;;;;;-0.90;99.90;;;;;;2622370;46;19990;31
2022/11/19 01:09:36;;;;;;;;;;;0.20;99.90;;;;;;2603888;54;19946;31
2022/11/19 01:12:08;;;;;;;;;;;-0.80;99.90;;;;;;2604128;54;20002;31
2022/11/19 01:14:42;;;;;;;;;;;-0.80;99.90;;;;;;2604054;54;19941;31
2022/11/19 01:17:16;;;;;;;;;;;-0.80;99.90;;;;;;2603986;54;20788;31
2022/11/19 01:19:54;;;;;;;;;;;-0.80;99.90;;;;;;2603964;54;19934;31
2022/11/19 01:22:27;;;;;;;;;;;-0.80;99.90;;;;;;2603726;54;19934;31
2022/11/19 01:24:59;;;;;;;;;;;-0.80;99.90;;;;;;2603877;54;19960;31
2022/11/19 01:27:31;;;;;;;;;;;-0.80;99.90;;;;;;2720530;39;20413;31
2022/11/19 01:30:06;;;;;;;;;;;-0.80;99.90;;;;;;2603780;54;19935;31
2022/11/19 01:32:39;;;;;;;;;;;-0.80;99.90;;;;;;2603773;54;19941;31
2022/11/19 01:35:16;;;;;;;;;;;-0.80;99.90;;;;;;2603894;54;20764;31
2022/11/19 01:37:50;;;;;;;;;;;-0.80;99.90;;;;;;2603975;54;19941;31
2022/11/19 01:40:23;;;;;;;;;;;-0.80;99.90;;;;;;2622384;46;20701;31
2022/11/19 01:42:57;;;;;;;;;;;-0.80;99.90;;;;;;2603680;54;20761;31
2022/11/19 01:45:32;;;;;;;;;;;-0.80;99.90;;;;;;2622380;46;20761;31
2022/11/19 01:48:08;;;;;;;;;;;-0.80;99.90;;;;;;2603865;54;19956;31
2022/11/19 01:50:44;;;;;;;;;;;-0.80;99.90;;;;;;2603792;54;19934;31
2022/11/19 01:53:18;;;;;;;;;;;-0.70;99.90;;;;;;2603828;54;20005;31
2022/11/19 01:55:50;;;;;;;;;;;-0.80;99.90;;;;;;2603609;54;19992;31
2022/11/19 01:58:25;;;;;;;;;;;-0.80;99.90;;;;;;2603878;54;20021;31
2022/11/19 02:00:58;;;;;;;;;;;-0.80;99.90;;;;;;2603850;54;19989;31
2022/11/19 02:03:32;;;;;;;;;;;-0.80;99.90;;;;;;2603548;54;20029;31
2022/11/19 02:06:09;;;;;;;;;;;-0.80;99.90;;;;;;2622167;46;19935;31
2022/11/19 02:08:43;;;;;;;;;;;-0.70;99.90;;;;;;2622292;46;19941;31
2022/11/19 02:11:39;;;;;;;;;;;-0.70;99.90;;;;;;2604012;54;20738;31
2022/11/19 02:16:46;;;;;;;;;;;-0.80;99.90;;;;;;2603713;54;19980;31
2022/11/19 02:19:30;;;;;;;;;;;-0.70;99.90;;;;;;2622172;46;19934;31
2022/11/19 02:22:07;;;;;;;;;;;-0.80;99.90;;;;;;2622295;46;19935;31
2022/11/19 02:24:43;;;;;;;;;;;-0.80;99.90;;;;;;2603588;54;20000;31
2022/11/19 02:27:31;;;;;;;;;;;-0.80;99.90;;;;;;2622042;46;19968;31
2022/11/19 02:30:17;;;;;;;;;;;-0.80;99.90;;;;;;2603647;54;20781;31
2022/11/19 02:32:53;;;;;;;;;;;-0.80;99.90;;;;;;2603623;54;20742;31
2022/11/19 02:35:30;;;;;;;;;;;-0.80;99.90;;;;;;2603934;54;20749;31
2022/11/19 02:38:04;;;;;;;;;;;-0.80;99.90;;;;;;2622085;46;19934;31
2022/11/19 02:40:38;;;;;;;;;;;-0.80;99.90;;;;;;2622213;46;19934;31
2022/11/19 02:43:12;;;;;;;;;;;-0.80;99.90;;;;;;2602844;54;19941;31
2022/11/19 02:45:49;;;;;;;;;;;-0.70;99.90;;;;;;2622044;46;19934;31
2022/11/19 02:48:24;;;;;;;;;;;-0.70;99.90;;;;;;2603736;54;19940;31
2022/11/19 02:50:59;;;;;;;;;;;-0.80;99.90;;;;;;2603726;54;20754;31
2022/11/19 02:53:32;;;;;;;;;;;-0.70;99.90;;;;;;2622090;46;19941;31
2022/11/19 02:56:13;;;;;;;;;;;-0.80;99.90;;;;;;2603562;54;19962;31
2022/11/19 03:04:33;;;;;;;;;;;-0.80;99.90;;;;;;2621774;46;20009;31
2022/11/19 03:07:08;;;;;;;;;;;-0.70;99.90;;;;;;2621980;46;19935;31
2022/11/19 03:09:42;;;;;;;;;;;-0.70;99.90;;;;;;2621957;46;19935;31
2022/11/19 03:12:19;;;;;;;;;;;-0.70;99.90;;;;;;2622196;46;19935;31
2022/11/19 03:17:47;;;;;;;;;;;-0.70;99.90;;;;;;2603591;54;20721;31
2022/11/19 03:20:22;;;;;;;;;;;-0.70;99.90;;;;;;2621972;46;19934;31
2022/11/19 03:22:55;;;;;;;;;;;-0.70;99.90;;;;;;2603599;54;20752;31
2022/11/19 03:25:28;;;;;;;;;;;-0.70;99.90;;;;;;2603598;54;19934;31
2022/11/19 03:28:03;;;;;;;;;;;-0.70;99.90;;;;;;2603536;54;19935;31
2022/11/19 03:30:36;;;;;;;;;;;-0.70;99.90;;;;;;2603593;54;19934;31
2022/11/19 03:33:13;;;;;;;;;;;-0.70;99.90;;;;;;2603406;54;19957;31
2022/11/19 03:35:48;;;;;;;;;;;-0.70;99.90;;;;;;2603186;54;19946;31
2022/11/19 03:38:23;;;;;;;;;;;-0.70;99.90;;;;;;2603495;54;20745;31
2022/11/19 03:40:56;;;;;;;;;;;-0.70;99.90;;;;;;2603703;54;19941;31
2022/11/19 03:43:31;;;;;;;;;;;-0.70;99.90;;;;;;2622158;46;19954;31
2022/11/19 03:46:04;;;;;;;;;;;-0.70;99.90;;;;;;2603521;54;19962;31
2022/11/19 03:48:41;;;;;;;;;;;-0.80;99.90;;;;;;2603217;54;19939;31
2022/11/19 03:51:15;;;;;;;;;;;-0.80;99.90;;;;;;2603512;54;20764;31
2022/11/19 03:53:49;;;;;;;;;;;-0.80;99.90;;;;;;2621660;46;19935;31
2022/11/19 03:56:23;;;;;;;;;;;0.30;99.90;;;;;;2603284;54;20806;31
2022/11/19 03:58:57;;;;;;;;;;;-0.90;99.90;;;;;;2603529;54;20718;31
2022/11/19 04:01:32;;;;;;;;;;;-1.00;99.90;;;;;;2603604;54;19938;31
2022/11/19 04:06:54;;;;;;;;;;;-1.00;99.90;;;;;;2603358;54;19942;31
2022/11/19 04:09:28;;;;;;;;;;;-1.00;99.90;;;;;;2603530;54;19942;31
2022/11/19 04:12:01;;;;;;;;;;;-1.10;99.90;;;;;;2603288;54;20716;31
2022/11/19 04:14:35;;;;;;;;;;;-1.10;99.90;;;;;;2603344;54;20025;31
2022/11/19 04:17:09;;;;;;;;;;;-1.20;99.90;;;;;;2603294;54;19942;31
2022/11/19 04:19:46;;;;;;;;;;;-1.30;99.90;;;;;;2603410;54;20807;31
2022/11/19 04:22:19;;;;;;;;;;;-1.30;99.90;;;;;;2603322;54;19935;31
2022/11/19 04:24:53;;;;;;;;;;;-1.40;99.90;;;;;;2603128;54;20769;31
2022/11/19 04:27:27;;;;;;;;;;;-1.40;99.90;;;;;;2621947;47;19935;31
2022/11/19 04:30:01;;;;;;;;;;;-1.40;99.90;;;;;;2602993;54;19940;31
2022/11/19 04:32:35;;;;;;;;;;;-1.50;99.90;;;;;;2603226;54;19934;31
2022/11/19 04:35:12;;;;;;;;;;;-1.60;99.90;;;;;;2603426;54;19935;31
2022/11/19 04:37:46;;;;;;;;;;;-1.60;99.90;;;;;;2603183;54;20753;31
2022/11/19 04:40:20;;;;;;;;;;;-1.60;99.90;;;;;;2603310;54;20814;31
2022/11/19 04:42:54;;;;;;;;;;;-1.60;99.90;;;;;;2621772;47;19938;31
2022/11/19 04:45:28;;;;;;;;;;;-1.70;99.90;;;;;;2603183;54;19989;31
2022/11/19 04:48:02;;;;;;;;;;;-1.70;99.90;;;;;;2603355;54;19934;31
2022/11/19 04:50:39;;;;;;;;;;;-1.80;99.90;;;;;;2603221;54;19950;31
2022/11/19 04:53:12;;;;;;;;;;;-1.80;99.90;;;;;;2603313;54;20710;31
2022/11/19 04:55:46;;;;;;;;;;;-1.90;99.90;;;;;;2603264;54;19934;31
2022/11/19 04:58:20;;;;;;;;;;;-1.90;99.90;;;;;;2621674;47;19997;31
2022/11/19 05:00:52;;;;;;;;;;;-1.90;99.90;;;;;;2603288;54;19941;31
2022/11/19 05:03:26;;;;;;;;;;;-2.00;99.90;;;;;;2603246;54;20007;31
2022/11/19 05:06:03;;;;;;;;;;;-2.10;99.90;;;;;;2622303;47;20773;31
2022/11/19 05:08:36;;;;;;;;;;;-2.10;99.90;;;;;;2622571;46;20787;31
2022/11/19 05:11:10;;;;;;;;;;;-2.10;99.90;;;;;;2603768;54;20815;31
2022/11/19 05:13:44;;;;;;;;;;;-2.20;99.90;;;;;;2603861;54;19993;31
2022/11/19 05:16:18;;;;;;;;;;;-2.30;99.90;;;;;;2603856;54;20693;31
2022/11/19 05:18:52;;;;;;;;;;;-2.30;99.90;;;;;;2604067;54;20799;31
2022/11/19 05:21:29;;;;;;;;;;;-2.30;99.90;;;;;;2604065;54;19940;31
2022/11/19 05:24:02;;;;;;;;;;;-2.40;99.90;;;;;;2622381;46;19965;31
2022/11/19 05:26:36;;;;;;;;;;;-1.60;99.90;;;;;;2604062;54;20010;31
2022/11/19 05:29:10;;;;;;;;;;;-2.50;99.90;;;;;;2603957;54;19934;31
2022/11/19 05:31:44;;;;;;;;;;;-2.50;99.90;;;;;;2622168;46;19935;31
2022/11/19 05:34:16;;;;;;;;;;;-2.60;99.90;;;;;;2622256;46;19934;31
2022/11/19 05:36:53;;;;;;;;;;;-2.60;99.90;;;;;;2603959;54;20745;31
2022/11/19 05:39:27;;;;;;;;;;;-2.60;99.90;;;;;;2622325;46;19939;31
2022/11/19 05:42:01;;;;;;;;;;;-2.60;99.90;;;;;;2604082;54;20742;31
2022/11/19 05:44:35;;;;;;;;;;;-2.60;99.90;;;;;;2604038;54;20735;31
2022/11/19 05:47:07;;;;;;;;;;;-2.70;99.90;;;;;;2603972;54;20787;31
2022/11/19 05:49:41;;;;;;;;;;;-2.70;99.90;;;;;;2603781;54;19960;31
2022/11/19 05:52:18;;;;;;;;;;;-2.70;99.90;;;;;;2622346;46;19942;31
2022/11/19 05:54:51;;;;;;;;;;;-2.70;99.90;;;;;;2603532;54;20775;31
2022/11/19 05:57:23;;;;;;;;;;;-2.80;99.90;;;;;;2603885;54;20762;31
2022/11/19 05:59:57;;;;;;;;;;;-2.80;99.90;;;;;;2622435;46;19946;31
2022/11/19 06:02:31;;;;;;;;;;;-2.80;99.90;;;;;;2603647;54;20009;31
2022/11/19 06:05:04;;;;;;;;;;;-2.90;99.90;;;;;;2603826;54;19960;31
2022/11/19 06:07:40;;;;;;;;;;;-2.80;99.90;;;;;;2603587;54;19990;31
2022/11/19 06:10:13;;;;;;;;;;;-2.90;99.90;;;;;;2622097;46;19934;31
2022/11/19 06:12:47;;;;;;;;;;;-2.90;99.90;;;;;;2603967;54;19961;31
2022/11/19 06:15:21;;;;;;;;;;;-3.00;99.90;;;;;;2603862;54;19957;31
2022/11/19 06:17:57;;;;;;;;;;;-3.00;99.90;;;;;;2603588;54;20741;31
2022/11/19 06:20:31;;;;;;;;;;;-3.00;99.90;;;;;;2603774;54;19938;31
2022/11/19 06:23:08;;;;;;;;;;;-3.10;99.90;;;;;;2603430;54;19977;31
2022/11/19 06:25:41;;;;;;;;;;;-3.00;99.90;;;;;;2622269;46;19935;31
2022/11/19 06:28:16;;;;;;;;;;;-3.00;99.90;;;;;;2603489;54;20734;31
2022/11/19 06:30:49;;;;;;;;;;;-3.00;99.90;;;;;;2622117;46;19934;31
2022/11/19 06:33:24;;;;;;;;;;;-3.00;99.90;;;;;;2603576;54;19934;31
2022/11/19 06:35:58;;;;;;;;;;;-3.10;99.90;;;;;;2603525;54;19935;31
2022/11/19 06:38:34;;;;;;;;;;;-3.10;99.90;;;;;;2603576;54;19939;31
2022/11/19 06:41:07;;;;;;;;;;;-3.10;99.90;;;;;;2603499;54;20107;31
2022/11/19 06:43:42;;;;;;;;;;;-3.10;99.90;;;;;;2622376;46;20751;31
2022/11/19 06:46:16;;;;;;;;;;;-3.20;99.90;;;;;;2622318;46;20772;31
2022/11/19 06:48:50;;;;;;;;;;;-3.20;99.90;;;;;;2622053;46;19961;31
2022/11/19 06:51:24;;;;;;;;;;;-3.20;99.90;;;;;;2603369;54;20787;31
2022/11/19 06:54:01;;;;;;;;;;;-3.20;99.90;;;;;;2603703;54;19941;31
2022/11/19 06:56:35;;;;;;;;;;;-3.20;99.90;;;;;;2622122;46;19941;31
2022/11/19 06:59:09;;;;;;;;;;;-3.10;99.90;;;;;;2621949;46;19934;31
2022/11/19 07:01:42;;;;;;;;;;;-3.20;99.90;;;;;;2603584;54;19934;31
2022/11/19 07:04:16;;;;;;;;;;;-3.10;99.90;;;;;;2621738;46;20013;31
2022/11/19 07:06:50;;;;;;;;;;;-3.00;99.90;;;;;;2603664;54;19935;31
2022/11/19 07:09:27;;;;;;;;;;;-2.90;99.90;;;;;;2605553;46;19935;31
2022/11/19 07:12:01;;;;;;;;;;;-2.50;99.90;;;;;;2603539;54;20791;31
2022/11/19 07:14:34;;;;;;;;;;;-1.90;99.90;;;;;;2603397;54;20532;31
2022/11/19 07:17:09;;;;;;;;;;;-1.20;99.90;;;;;;2603263;54;19935;31
2022/11/19 07:19:42;;;;;;;;;;;-0.60;99.90;;;;;;2603330;54;19942;31
2022/11/19 07:22:16;;;;;;;;;;;-0.10;99.90;;;;;;2720566;39;20500;31
2022/11/19 07:24:53;;;;;;;;;;;0.50;99.90;;;;;;2603509;54;20698;31
2022/11/19 07:27:26;;;;;;;;;;;1.00;99.90;;;;;;2720789;39;20365;31
2022/11/19 07:30:03;;;;;;;;;;;1.50;99.90;;;;;;2603805;54;19939;31
2022/11/19 07:32:36;;;;;;;;;;;1.90;99.90;;;;;;2603562;54;19997;31
2022/11/19 07:35:10;;;;;;;;;;;2.20;99.90;;;;;;2621988;46;20748;31
2022/11/19 07:37:44;;;;;;;;;;;2.60;99.90;;;;;;2603230;54;19934;31
2022/11/19 07:40:21;;;;;;;;;;;3.10;99.90;;;;;;2621771;46;20731;31
2022/11/19 07:42:52;;;;;;;;;;;3.50;99.90;;;;;;2603754;54;19934;31
2022/11/19 07:45:25;;;;;;;;;;;3.70;99.90;;;;;;2603318;54;19943;31
2022/11/19 07:47:59;;;;;;;;;;;3.80;99.90;;;;;;2603544;54;19934;31
2022/11/19 07:50:33;;;;;;;;;;;4.10;99.90;;;;;;2603349;54;20758;31
2022/11/19 07:53:07;;;;;;;;;;;4.40;99.90;;;;;;2603059;54;19940;31
2022/11/19 07:55:45;;;;;;;;;;;4.60;99.90;;;;;;2603640;54;19935;31
2022/11/19 07:58:19;;;;;;;;;;;4.90;99.90;;;;;;2621703;46;19957;31
2022/11/19 08:00:54;;;;;;;;;;;4.80;99.90;;;;;;2621612;46;19941;31
2022/11/19 08:03:27;;;;;;;;;;;4.70;99.90;;;;;;2603198;54;21494;31
2022/11/19 08:06:04;;;;;;;;;;;4.80;99.90;;;;;;2603191;54;20017;31
2022/11/19 08:08:37;;;;;;;;;;;5.00;99.90;;;;;;2603459;54;19935;31
2022/11/19 08:11:14;;;;;;;;;;;5.10;99.90;;;;;;2621783;47;20029;31
2022/11/19 08:13:49;;;;;;;;;;;5.30;99.90;;;;;;2602931;54;19934;31
2022/11/19 08:19:10;;;;;;;;;;;5.70;99.90;;;;;;2621842;47;19934;31
2022/11/19 08:21:44;;;;;;;;;;;5.80;99.90;;;;;;2622068;47;19939;31
2022/11/19 08:24:18;;;;;;;;;;;5.80;99.90;;;;;;2603089;54;20661;31
2022/11/19 08:26:55;;;;;;;;;;;5.90;99.90;;;;;;2603278;54;19934;31
2022/11/19 08:29:29;;;;;;;;;;;5.80;99.90;;;;;;2603329;54;19946;31
2022/11/19 08:32:03;;;;;;;;;;;5.90;99.90;;;;;;2602980;54;19942;31
2022/11/19 08:34:38;;;;;;;;;;;6.00;99.90;;;;;;2603324;54;19941;31
2022/11/19 08:37:12;;;;;;;;;;;6.00;99.90;;;;;;2602436;54;19942;31
2022/11/19 08:39:44;;;;;;;;;;;6.00;99.90;;;;;;2603541;54;20008;31
2022/11/19 08:45:08;;;;;;;;;;;6.10;99.90;;;;;;2603786;54;20752;31
2022/11/19 08:47:43;;;;;;;;;;;6.20;99.90;;;;;;2604046;54;19934;31
2022/11/19 08:50:17;;;;;;;;;;;6.30;99.90;;;;;;2603857;54;19934;31
2022/11/19 08:52:55;;;;;;;;;;;6.40;99.90;;;;;;2622409;46;19946;31
2022/11/19 08:55:29;;;;;;;;;;;6.40;99.90;;;;;;2603957;54;19950;31
2022/11/19 08:58:06;;;;;;;;;;;6.50;99.90;;;;;;2603883;54;20785;31
2022/11/19 09:00:41;;;;;;;;;;;6.30;99.90;;;;;;2622501;46;19942;31
2022/11/19 09:03:14;;;;;;;;;;;6.40;99.90;;;;;;2603736;54;19940;31
2022/11/19 09:05:48;;;;;;;;;;;6.50;99.90;;;;;;2603911;54;20774;31
2022/11/19 09:08:22;;;;;;;;;;;6.30;99.90;;;;;;2622650;46;20801;31
2022/11/19 09:10:56;;;;;;;;;;;6.20;99.90;;;;;;2622496;46;20763;31
2022/11/19 09:13:34;;;;;;;;;;;6.30;99.90;;;;;;2603860;54;19935;31
2022/11/19 09:16:08;;;;;;;;;;;6.20;99.90;;;;;;2604056;54;19942;31
2022/11/19 09:18:43;;;;;;;;;;;6.30;99.90;;;;;;2603774;54;19941;31
2022/11/19 09:21:18;;;;;;;;;;;6.30;99.90;;;;;;2622154;46;19940;31
2022/11/19 09:23:51;;;;;;;;;;;6.30;99.90;;;;;;2603747;54;20825;31
2022/11/19 09:26:25;;;;;;;;;;;6.20;99.90;;;;;;2604049;54;20763;31
2022/11/19 09:29:02;;;;;;;;;;;6.20;99.90;;;;;;2603895;54;20759;31
2022/11/19 09:31:34;;;;;;;;;;;6.20;99.90;;;;;;2603697;54;20017;31
2022/11/19 09:34:08;;;;;;;;;;;6.00;99.90;;;;;;2603464;54;19989;31
2022/11/19 09:36:42;;;;;;;;;;;5.90;99.90;;;;;;2622183;46;19941;31
2022/11/19 09:39:16;;;;;;;;;;;6.00;99.90;;;;;;2622381;46;19950;31
2022/11/19 09:41:52;;;;;;;;;;;6.10;99.90;;;;;;2622466;46;20738;31
2022/11/19 09:44:33;;;;;;;;;;;6.10;99.90;;;;;;2603890;54;20752;31
2022/11/19 09:47:10;;;;;;;;;;;6.10;99.90;;;;;;2603805;54;20778;31
2022/11/19 09:49:44;;;;;;;;;;;5.90;99.90;;;;;;2603748;54;19951;31
2022/11/19 09:52:18;;;;;;;;;;;5.80;99.90;;;;;;2621574;46;20800;31
2022/11/19 09:54:53;;;;;;;;;;;5.90;99.90;;;;;;2622329;46;19965;31
2022/11/19 09:57:27;;;;;;;;;;;5.70;99.90;;;;;;2603584;54;19997;31
2022/11/19 10:00:05;;;;;;;;;;;5.30;99.90;;;;;;2603676;54;19958;31
2022/11/19 10:02:43;;;;;;;;;;;5.00;99.90;;;;;;2603774;54;19938;31
2022/11/19 10:05:18;;;;;;;;;;;4.60;99.90;;;;;;2603593;54;19935;31
2022/11/19 10:07:54;;;;;;;;;;;4.50;99.90;;;;;;2622186;46;19965;31
2022/11/19 10:10:32;;;;;;;;;;;4.20;99.90;;;;;;2622388;46;19957;31
2022/11/19 10:13:23;;;;;;;;;;;3.90;99.90;;;;;;2622070;46;19934;31
2022/11/19 10:15:57;;;;;;;;;;;3.90;99.90;;;;;;2603745;54;20720;31
2022/11/19 10:18:33;;;;;;;;;;;3.90;99.90;;;;;;2622346;46;20837;31
2022/11/19 10:21:08;;;;;;;;;;;3.90;99.90;;;;;;2622479;46;19934;31
2022/11/19 10:23:45;;;;;;;;;;;3.80;99.90;;;;;;2621988;46;20572;31
2022/11/19 10:26:20;;;;;;;;;;;3.80;99.90;;;;;;2603851;54;20713;31
2022/11/19 10:28:55;;;;;;;;;;;3.90;99.90;;;;;;2702358;39;21295;31
2022/11/19 10:31:30;;;;;;;;;;;4.00;99.90;;;;;;2702512;39;21323;31
2022/11/19 10:34:09;;;;;;;;;;;3.90;99.90;;;;;;2621805;46;20001;31
2022/11/19 10:36:43;;;;;;;;;;;3.80;99.90;;;;;;2603303;54;19934;31
2022/11/19 10:39:18;;;;;;;;;;;3.80;99.90;;;;;;2603493;54;20485;31
2022/11/19 10:41:53;;;;;;;;;;;3.80;99.90;;;;;;2603689;54;19934;31
2022/11/19 10:44:44;;;;;;;;;;;3.80;99.90;;;;;;2622062;46;20724;31
2022/11/19 10:47:19;;;;;;;;;;;3.80;99.90;;;;;;2603704;54;20757;31
2022/11/19 10:49:56;;;;;;;;;;;3.90;99.90;;;;;;2603656;54;20007;31
2022/11/19 10:52:31;;;;;;;;;;;3.90;99.90;;;;;;2603846;54;20038;31
2022/11/19 10:55:05;;;;;;;;;;;3.90;99.90;;;;;;2622279;46;19938;31
2022/11/19 10:57:38;;;;;;;;;;;3.90;99.90;;;;;;2622122;46;19981;31
2022/11/19 11:00:14;;;;;;;;;;;3.90;99.90;;;;;;2603656;54;19989;31
2022/11/19 11:02:48;;;;;;;;;;;3.70;99.90;;;;;;2603331;54;19946;31
2022/11/19 11:05:24;;;;;;;;;;;3.80;99.90;;;;;;2603679;54;19941;31
2022/11/19 11:07:58;;;;;;;;;;;3.60;99.90;;;;;;2621850;46;20688;31
2022/11/19 11:10:33;;;;;;;;;;;3.40;99.90;;;;;;2603649;54;19942;31
2022/11/19 11:15:53;;;;;;;;;;;3.10;99.90;;;;;;2622283;46;19934;31
2022/11/19 11:18:28;;;;;;;;;;;3.10;99.90;;;;;;2621929;46;19993;31
2022/11/19 11:21:04;;;;;;;;;;;3.00;99.90;;;;;;2603590;54;20716;31
2022/11/19 11:23:46;;;;;;;;;;;3.00;99.90;;;;;;2702066;39;20420;31
2022/11/19 11:26:20;;;;;;;;;;;3.00;99.90;;;;;;2603485;54;19934;31
2022/11/19 11:28:56;;;;;;;;;;;2.80;99.90;;;;;;2603554;54;19938;31
2022/11/19 11:31:30;;;;;;;;;;;2.80;99.90;;;;;;2603594;54;20013;31
2022/11/19 11:34:03;;;;;;;;;;;2.80;99.90;;;;;;2603604;54;19943;31
2022/11/19 11:36:39;;;;;;;;;;;2.80;99.90;;;;;;2603709;54;20020;31
2022/11/19 11:39:12;;;;;;;;;;;2.70;99.90;;;;;;2603416;54;19935;31
2022/11/19 11:41:46;;;;;;;;;;;2.60;99.90;;;;;;2603345;54;19941;31
2022/11/19 11:44:39;;;;;;;;;;;2.60;99.90;;;;;;2720578;39;20431;31
2022/11/19 11:47:13;;;;;;;;;;;2.60;99.90;;;;;;2603532;54;19946;31
2022/11/19 11:49:48;;;;;;;;;;;2.50;99.90;;;;;;2603695;54;19941;31
2022/11/19 11:52:24;;;;;;;;;;;2.50;99.90;;;;;;2702127;39;20425;31
2022/11/19 11:54:59;;;;;;;;;;;2.40;99.90;;;;;;2603279;54;20767;31
2022/11/19 11:57:33;;;;;;;;;;;2.30;99.90;;;;;;2621971;46;19941;31
2022/11/19 12:00:28;;;;;;;;;;;2.30;99.90;;;;;;2603324;54;20536;31
2022/11/19 12:03:03;;;;;;;;;;;2.20;99.90;;;;;;2621886;46;19934;31
2022/11/19 12:05:46;;;;;;;;;;;2.20;99.90;;;;;;2621914;46;20798;31
2022/11/19 12:08:28;;;;;;;;;;;2.20;99.90;;;;;;2603551;54;19941;31
2022/11/19 12:11:03;;;;;;;;;;;2.10;99.90;;;;;;2603720;54;20725;31
2022/11/19 12:13:44;;;;;;;;;;;2.10;99.90;;;;;;2621723;47;19935;31
2022/11/19 12:16:21;;;;;;;;;;;2.00;99.90;;;;;;2622732;47;19935;31
2022/11/19 12:18:58;;;;;;;;;;;2.10;99.90;;;;;;2604030;54;20723;31
2022/11/19 12:21:34;;;;;;;;;;;2.00;99.90;;;;;;2604385;54;19941;31
2022/11/19 12:24:14;;;;;;;;;;;2.00;99.90;;;;;;2603927;54;20665;31
2022/11/19 12:26:48;;;;;;;;;;;2.00;99.90;;;;;;2622504;46;19934;31
2022/11/19 12:29:23;;;;;;;;;;;2.00;99.90;;;;;;2702665;39;20413;31
2022/11/19 12:32:00;;;;;;;;;;;1.90;99.90;;;;;;2604121;54;19950;31
2022/11/19 12:34:47;;;;;;;;;;;1.90;99.90;;;;;;2604158;54;19934;31
2022/11/19 12:37:25;;;;;;;;;;;1.90;99.90;;;;;;2604218;54;20706;31
2022/11/19 12:40:03;;;;;;;;;;;1.90;99.90;;;;;;2604007;54;19935;31
2022/11/19 12:42:39;;;;;;;;;;;1.90;99.90;;;;;;2622707;46;20001;31
2022/11/19 12:45:16;;;;;;;;;;;1.80;99.90;;;;;;2604237;54;19981;31
2022/11/19 12:48:01;;;;;;;;;;;1.80;99.90;;;;;;2622640;46;19934;31
2022/11/19 12:50:36;;;;;;;;;;;1.70;99.90;;;;;;2603617;54;19986;31
2022/11/19 12:53:23;;;;;;;;;;;1.70;99.90;;;;;;2604040;54;20001;31
2022/11/19 12:56:02;;;;;;;;;;;1.70;99.90;;;;;;2603895;54;19994;31
2022/11/19 12:58:38;;;;;;;;;;;2.70;99.90;;;;;;2702447;39;20485;31
2022/11/19 13:01:15;;;;;;;;;;;1.60;99.90;;;;;;2604126;54;20798;31
2022/11/19 13:03:51;;;;;;;;;;;1.50;99.90;;;;;;2622627;46;19946;31
2022/11/19 13:06:26;;;;;;;;;;;1.50;99.90;;;;;;2702607;39;20409;31
2022/11/19 13:09:01;;;;;;;;;;;1.50;99.90;;;;;;2702404;39;20365;31
2022/11/19 13:11:39;;;;;;;;;;;1.50;99.90;;;;;;2603969;54;20037;31
2022/11/19 13:14:13;;;;;;;;;;;1.40;99.90;;;;;;2702583;39;20367;31
2022/11/19 13:16:47;;;;;;;;;;;1.40;99.90;;;;;;2622437;46;19990;31
2022/11/19 13:19:23;;;;;;;;;;;1.40;99.90;;;;;;2603880;54;19934;31
2022/11/19 13:21:57;;;;;;;;;;;1.40;99.90;;;;;;2604226;54;19993;31
2022/11/19 13:24:31;;;;;;;;;;;1.30;99.90;;;;;;2622459;46;19934;31
2022/11/19 13:27:07;;;;;;;;;;;1.30;99.90;;;;;;2603963;54;20758;31
2022/11/19 13:29:43;;;;;;;;;;;1.30;99.90;;;;;;2604004;54;19941;31
2022/11/19 13:32:20;;;;;;;;;;;1.20;99.90;;;;;;2603861;54;20025;31
2022/11/19 13:35:03;;;;;;;;;;;1.20;99.90;;;;;;2622238;46;19994;31
2022/11/19 13:37:41;;;;;;;;;;;1.20;99.90;;;;;;2603992;54;19961;31
2022/11/19 13:40:19;;;;;;;;;;;1.20;99.90;;;;;;2604128;54;19942;31
2022/11/19 13:46:07;;;;;;;;;;;1.20;99.90;;;;;;2702338;39;20507;31
2022/11/19 13:48:42;;;;;;;;;;;1.10;99.90;;;;;;2622260;46;19957;31
2022/11/19 13:51:22;;;;;;;;;;;1.10;99.90;;;;;;2622375;46;20763;31
2022/11/19 13:53:56;;;;;;;;;;;1.10;99.90;;;;;;2603630;54;20838;31
2022/11/19 13:56:39;;;;;;;;;;;1.00;99.90;;;;;;2622508;46;20766;31
2022/11/19 13:59:25;;;;;;;;;;;1.00;99.90;;;;;;2702736;39;20885;31
2022/11/19 14:02:06;;;;;;;;;;;0.90;99.90;;;;;;2604012;54;19946;31
2022/11/19 14:04:43;;;;;;;;;;;0.90;99.90;;;;;;2603839;54;20756;31
2022/11/19 14:07:38;;;;;;;;;;;0.90;99.90;;;;;;2622449;46;19934;31
2022/11/19 14:10:14;;;;;;;;;;;0.80;99.90;;;;;;2622351;46;19935;31
2022/11/19 14:12:51;;;;;;;;;;;0.80;99.90;;;;;;2622176;46;20017;31
2022/11/19 14:27:23;;;;;;;;;;;0.70;99.90;;;;;;2720606;39;21287;31
2022/11/19 14:29:57;;;;;;;;;;;0.70;99.90;;;;;;2622076;46;19934;31
2022/11/19 14:32:38;;;;;;;;;;;0.60;99.90;;;;;;2603522;54;20751;31
2022/11/19 14:35:23;;;;;;;;;;;0.60;99.90;;;;;;2702417;39;21500;31
2022/11/19 14:37:57;;;;;;;;;;;0.60;99.90;;;;;;2603536;54;19938;31
2022/11/19 14:40:30;;;;;;;;;;;0.60;99.90;;;;;;2614201;46;19946;31
2022/11/19 14:46:19;;;;;;;;;;;1.50;99.90;;;;;;2603720;54;20756;31
2022/11/19 14:51:31;;;;;;;;;;;0.50;99.90;;;;;;2603551;54;20001;31
2022/11/19 14:54:09;;;;;;;;;;;0.40;99.90;;;;;;2603918;54;20353;31
2022/11/19 14:56:44;;;;;;;;;;;0.40;99.90;;;;;;2622132;46;20389;31
2022/11/19 14:59:21;;;;;;;;;;;0.30;99.90;;;;;;2602996;54;19941;31
2022/11/19 15:01:56;;;;;;;;;;;0.30;99.90;;;;;;2603369;54;19934;31
2022/11/19 15:04:32;;;;;;;;;;;0.20;99.90;;;;;;2603653;54;19961;31
2022/11/19 15:07:13;;;;;;;;;;;0.20;99.90;;;;;;2602884;54;20787;31
2022/11/19 15:09:54;;;;;;;;;;;0.10;99.90;;;;;;2603581;54;20764;31
2022/11/19 15:12:32;;;;;;;;;;;0.10;99.90;;;;;;2603455;54;19985;31
2022/11/19 15:15:21;;;;;;;;;;;0.10;99.90;;;;;;2603361;54;19942;31
2022/11/19 15:17:55;;;;;;;;;;;0.00;99.90;;;;;;2622092;46;20004;31
2022/11/19 15:20:35;;;;;;;;;;;0.00;99.90;;;;;;2702080;39;21227;31
2022/11/19 15:23:11;;;;;;;;;;;0.00;99.90;;;;;;2603612;54;19944;31
2022/11/19 15:25:47;;;;;;;;;;;0.00;99.90;;;;;;2603595;54;20025;31
2022/11/19 15:28:23;;;;;;;;;;;-0.10;99.90;;;;;;2603436;54;20798;31
2022/11/19 15:31:02;;;;;;;;;;;-0.20;99.90;;;;;;2603277;54;20809;31
2022/11/19 15:33:41;;;;;;;;;;;-0.20;99.90;;;;;;2602764;54;20817;31
2022/11/19 15:36:26;;;;;;;;;;;-0.20;99.90;;;;;;2603494;54;20689;31
2022/11/19 15:39:05;;;;;;;;;;;-0.20;99.90;;;;;;2622070;46;19935;31
2022/11/19 15:41:39;;;;;;;;;;;-0.30;99.90;;;;;;2603517;54;19934;31
2022/11/19 15:44:14;;;;;;;;;;;-0.30;99.90;;;;;;2603620;54;19998;31
2022/11/19 15:46:49;;;;;;;;;;;-0.40;99.90;;;;;;2603362;54;20438;31
2022/11/19 15:49:23;;;;;;;;;;;-0.40;99.90;;;;;;2602974;54;19961;31
2022/11/19 15:51:58;;;;;;;;;;;-0.50;99.90;;;;;;2603249;54;20800;31
2022/11/19 15:54:35;;;;;;;;;;;-0.50;99.90;;;;;;2603205;54;20778;31
2022/11/19 15:57:16;;;;;;;;;;;-0.50;99.90;;;;;;2603273;54;19941;31
2022/11/19 15:59:50;;;;;;;;;;;-0.60;99.90;;;;;;2720387;39;20465;31
2022/11/19 16:02:23;;;;;;;;;;;-0.60;99.90;;;;;;2603251;54;20777;31
2022/11/19 16:04:57;;;;;;;;;;;-0.70;99.90;;;;;;2603494;54;19990;31
2022/11/19 16:07:30;;;;;;;;;;;-0.70;99.90;;;;;;2701713;39;20297;31
2022/11/19 16:10:07;;;;;;;;;;;-0.70;99.90;;;;;;2603499;54;20714;31
2022/11/19 16:18:14;;;;;;;;;;;-0.80;99.90;;;;;;2603285;54;19938;31